Garber, OK (73738)

4:17 AM CDT on September 02, 2014 (GMT -0500)
4 SSE | Change Station
CLOSE
Current Station
Personal Weather Station
Location: Billings, OK
Elevation: 980 ft
Nearby Weather Stations

Elev 980 ft 36.48 °N, 97.42 °W | Updated 6 minutes ago

Clear
Clear
74.4 °F
Feels Like 74 °F
N
8.0
Wind Variable Wind from ENE
Gusts 12.0 mph

Today
High -- | Low -- °F
--% Chance of Precip.
Yesterday
High -- | Low -- °F
Precip. -- in
7:02 AM 7:56 PM
Waxing Crescent, 49% visible
Pressure 29.82 in
Visibility 10.0 miles
Clouds Clear
Heat Index 74 °F
Dew Point 70 °F
Humidity 86%
Rainfall 0.00 in
Snow Depth Not available.
UV 0.0 out of 12
Pollen 11.60 out of 12
Air Quality Not available.
Flu Activity Not available.
METAR KWDG 020855Z AUTO 10008KT 10SM CLR 24/22 A2982 RMK AO2 LTG DSNT N AND NE

More Conditions Fewer Conditions

Pressure 29.82 in
Visibility 10.0 miles
Clouds Clear
Heat Index 74 °F
Dew Point 70 °F
Humidity 86%
Rainfall 0.00 in
Snow Depth Not available.
UV 0.0 out of 12
Pollen 11.60 out of 12
Air Quality Not available.
Flu Activity Not available.
METAR KWDG 020855Z AUTO 10008KT 10SM CLR 24/22 A2982 RMK AO2 LTG DSNT N AND NE

More Conditions Fewer Conditions

10-Day Weather Forecast

Almanac

Astronomy

Sep. 02, 2014 Rise Set
Actual Time 7:02 AM CDT 7:56 PM CDT
Civil Twilight 6:36 AM CDT 8:23 PM CDT
Nautical Twilight 6:04 AM CDT 8:54 PM CDT
Astronomical Twilight 5:32 AM CDT 9:26 PM CDT
Moon 2:36 PM CDT 12:12 AM CDT
Length of Visible Light 13h 46m
Length of Day
12h 54m
Tomorrow will be 2m 14s shorter.
Waxing Crescent, 49% of the Moon is Illuminated
Today
Waxing Crescent
Sep 2
First Quarter
Sep 8
Full
Sep 15
Last Quarter
Sep 24
New

Today's Extremes

State Highs State Lows

Community

WunderPhotos

Upload Photos

1,749,587 photos uploaded!

WunderBlogs® & News

Nearby

Snow Depth

Station Depth Elevation
No new snow has been reported.

Earthquake Activity

City Distance Mag. Time & Date
Helena, Oklahoma 43 miles 3.2 3:05 AM CDT
2014-09-02
Medford, Oklahoma 26 miles 3.3 11:58 PM CDT
2014-09-01
Perry, Oklahoma 19 miles 3.1 6:46 AM CDT
2014-09-01
Jones, Oklahoma 60 miles 3.1 1:49 PM CDT
2014-08-31
Minimum magnitude displayed is 2.5.

Coastal Water Temperatures

Place Temperature
No Stations Reporting

Nearby Weather Stations